createdAt,value
2023-04-26T00:02:24.751Z,2.13
2023-04-26T00:04:56.270Z,2.88
2023-04-26T00:07:24.869Z,3.22
2023-04-26T00:09:53.506Z,3.42
2023-04-26T00:12:22.078Z,3.15
2023-04-26T00:14:51.625Z,3.35
2023-04-26T00:17:19.703Z,3.10
2023-04-26T00:19:47.990Z,2.95
2023-04-26T00:22:16.350Z,2.72
2023-04-26T00:24:44.657Z,2.95
2023-04-26T00:27:12.808Z,2.67
2023-04-26T00:29:40.823Z,3.70
2023-04-26T00:32:10.588Z,3.78
2023-04-26T00:34:39.396Z,2.78
2023-04-26T00:37:07.911Z,2.78
2023-04-26T00:39:35.891Z,3.15
2023-04-26T00:42:05.502Z,3.60
2023-04-26T00:44:33.606Z,3.08
2023-04-26T00:47:01.614Z,2.58
2023-04-26T00:49:31.340Z,2.95
2023-04-26T00:51:59.620Z,2.75
2023-04-26T00:54:27.794Z,3.92
2023-04-26T00:56:55.856Z,3.15
2023-04-26T00:59:24.029Z,2.42
2023-04-26T01:01:52.078Z,2.58
2023-04-26T01:04:20.302Z,2.42
2023-04-26T01:06:50.359Z,3.00
2023-04-26T01:09:19.887Z,2.60
2023-04-26T01:11:48.480Z,2.75
2023-04-26T01:14:17.031Z,2.92
2023-04-26T01:16:47.536Z,2.65
2023-04-26T01:19:16.599Z,3.35
2023-04-26T01:21:44.929Z,2.53
2023-04-26T01:24:15.102Z,3.35
2023-04-26T01:26:45.849Z,3.03
2023-04-26T01:29:17.954Z,3.70
2023-04-26T01:31:46.276Z,3.88
2023-04-26T01:34:14.498Z,3.80
2023-04-26T01:36:42.684Z,4.00
2023-04-26T01:39:10.778Z,3.70
2023-04-26T01:41:40.191Z,3.33
2023-04-26T01:44:08.265Z,3.20
2023-04-26T01:46:36.311Z,3.85
2023-04-26T01:49:04.484Z,3.60
2023-04-26T01:51:32.697Z,3.65
2023-04-26T01:54:00.829Z,4.28
2023-04-26T01:56:28.933Z,3.35
2023-04-26T01:58:59.195Z,3.92
2023-04-26T02:01:27.368Z,4.13
2023-04-26T02:03:55.473Z,3.85
2023-04-26T02:06:23.528Z,3.95
2023-04-26T02:08:51.826Z,5.00
2023-04-26T02:11:20.121Z,3.88
2023-04-26T02:13:48.125Z,4.22
2023-04-26T02:16:17.515Z,4.97
2023-04-26T02:18:45.706Z,4.38
2023-04-26T02:21:13.777Z,3.55
2023-04-26T02:23:41.797Z,3.60
2023-04-26T02:26:09.830Z,4.75
2023-04-26T02:28:37.921Z,4.50
2023-04-26T02:31:05.998Z,4.25
2023-04-26T02:33:35.508Z,4.43
2023-04-26T02:36:05.648Z,4.78
2023-04-26T02:38:35.749Z,4.57
2023-04-26T02:41:04.613Z,4.20
2023-04-26T02:43:32.581Z,3.80
2023-04-26T02:46:01.317Z,4.50
2023-04-26T02:48:29.553Z,4.03
2023-04-26T02:50:58.941Z,4.05
2023-04-26T02:53:26.962Z,3.83
2023-04-26T02:55:54.945Z,4.68
2023-04-26T02:58:22.941Z,3.83
2023-04-26T03:00:51.081Z,4.35
2023-04-26T03:03:19.234Z,4.43
2023-04-26T03:05:47.395Z,4.45
2023-04-26T03:08:16.749Z,4.20
2023-04-26T03:10:46.439Z,3.63
2023-04-26T03:13:15.195Z,4.60
2023-04-26T03:15:46.610Z,5.47
2023-04-26T03:18:14.721Z,4.97
2023-04-26T03:20:43.248Z,4.40
2023-04-26T03:23:11.257Z,5.68
2023-04-26T03:25:40.891Z,4.65
2023-04-26T03:28:08.961Z,4.40
2023-04-26T03:30:36.988Z,5.38
2023-04-26T03:33:05.137Z,4.72
2023-04-26T03:35:33.169Z,5.57
2023-04-26T03:38:01.173Z,4.45
2023-04-26T03:40:29.146Z,5.05
2023-04-26T03:42:58.509Z,5.47
2023-04-26T03:45:26.955Z,4.50
2023-04-26T03:47:55.150Z,4.47
2023-04-26T03:50:23.274Z,4.38
2023-04-26T03:52:51.299Z,4.68
2023-04-26T03:55:19.338Z,5.03
2023-04-26T03:57:47.357Z,5.03
2023-04-26T04:00:17.167Z,4.53
2023-04-26T04:02:46.159Z,4.97
2023-04-26T04:05:14.464Z,4.68
2023-04-26T04:07:42.879Z,5.78
2023-04-26T04:10:11.812Z,5.45
2023-04-26T04:12:39.862Z,6.72
2023-04-26T04:15:09.348Z,5.75
2023-04-26T04:17:38.977Z,5.35
2023-04-26T04:20:08.820Z,5.30
2023-04-26T04:22:36.868Z,5.75
2023-04-26T04:25:05.946Z,5.40
2023-04-26T04:27:33.989Z,5.53
2023-04-26T04:30:04.209Z,5.65
2023-04-26T04:32:33.162Z,5.85
2023-04-26T04:35:03.231Z,5.85
2023-04-26T04:37:33.097Z,5.25
2023-04-26T04:40:01.416Z,5.15
2023-04-26T04:42:29.449Z,5.93
2023-04-26T04:44:59.842Z,5.78
2023-04-26T04:47:27.995Z,6.43
2023-04-26T04:49:56.071Z,5.72
2023-04-26T04:52:25.805Z,5.15
2023-04-26T04:54:53.803Z,5.18
2023-04-26T04:57:21.814Z,5.97
2023-04-26T04:59:49.796Z,5.78
2023-04-26T05:02:17.983Z,5.43
2023-04-26T05:04:46.183Z,5.63
2023-04-26T05:07:15.681Z,6.00
2023-04-26T05:09:45.698Z,6.72
2023-04-26T05:12:13.707Z,5.22
2023-04-26T05:14:41.869Z,6.00
2023-04-26T05:17:09.919Z,5.93
2023-04-26T05:19:38.106Z,6.07
2023-04-26T05:22:06.270Z,7.20
2023-04-26T05:24:34.497Z,5.45
2023-04-26T05:27:05.314Z,5.45
2023-04-26T05:29:33.324Z,5.38
2023-04-26T05:32:01.441Z,6.72
2023-04-26T05:34:29.473Z,6.28
2023-04-26T05:36:57.481Z,6.30
2023-04-26T05:39:25.912Z,5.47
2023-04-26T05:41:53.979Z,4.90
2023-04-26T05:44:24.988Z,5.75
2023-04-26T05:46:53.045Z,5.03
2023-04-26T05:49:21.010Z,4.38
2023-04-26T05:51:49.128Z,4.93
2023-04-26T05:54:17.169Z,5.45
2023-04-26T05:56:45.169Z,4.97
2023-04-26T05:59:13.754Z,5.25
2023-04-26T06:01:43.206Z,5.55
2023-04-26T06:04:11.634Z,5.18
2023-04-26T06:06:39.960Z,5.43
2023-04-26T06:09:08.684Z,6.00
2023-04-26T06:11:36.800Z,6.22
2023-04-26T06:14:04.802Z,5.97
2023-04-26T06:16:32.837Z,6.38
2023-04-26T06:19:02.280Z,6.80
2023-04-26T06:21:31.186Z,6.72
2023-04-26T06:23:59.204Z,7.63
2023-04-26T06:26:27.280Z,6.95
2023-04-26T06:28:55.227Z,6.47
2023-04-26T06:31:23.406Z,5.82
2023-04-26T06:33:51.877Z,5.80
2023-04-26T06:36:21.455Z,7.18
2023-04-26T06:38:49.430Z,7.43
2023-04-26T06:41:17.434Z,5.80
2023-04-26T06:43:45.437Z,6.75
2023-04-26T06:46:13.472Z,7.78
2023-04-26T06:48:41.773Z,7.47
2023-04-26T06:51:10.107Z,7.35
2023-04-26T06:53:39.734Z,7.10
2023-04-26T06:56:07.951Z,8.65
2023-04-26T06:58:36.622Z,8.68
2023-04-26T07:01:06.323Z,8.00
2023-04-26T07:03:34.520Z,8.30
2023-04-26T07:06:02.701Z,8.43
2023-04-26T07:08:31.367Z,7.40
2023-04-26T07:11:00.710Z,9.65
2023-04-26T07:13:28.709Z,8.68
2023-04-26T07:15:56.719Z,7.57
2023-04-26T07:18:24.841Z,9.35
2023-04-26T07:20:52.830Z,7.13
2023-04-26T07:23:20.890Z,6.68
2023-04-26T07:25:48.888Z,7.72
2023-04-26T07:28:18.375Z,8.55
2023-04-26T07:30:46.357Z,7.78
2023-04-26T07:33:14.495Z,8.00
2023-04-26T07:35:43.872Z,6.85
2023-04-26T07:38:14.474Z,5.50
2023-04-26T07:40:43.255Z,5.18
2023-04-26T07:43:11.440Z,4.72
2023-04-26T07:45:40.916Z,3.95
2023-04-26T07:48:09.157Z,4.93
2023-04-26T07:50:37.294Z,4.15
2023-04-26T07:53:05.428Z,4.88
2023-04-26T07:55:33.419Z,3.97
2023-04-26T07:58:01.451Z,4.25
2023-04-26T08:00:30.430Z,3.30
2023-04-26T08:02:59.951Z,2.72
2023-04-26T08:05:29.293Z,2.40
2023-04-26T08:07:57.512Z,2.50
2023-04-26T08:10:26.293Z,3.40
2023-04-26T08:12:54.814Z,2.75
2023-04-26T08:15:22.876Z,3.95
2023-04-26T08:17:53.305Z,3.47
2023-04-26T08:20:22.788Z,3.80
2023-04-26T08:22:51.549Z,3.10
2023-04-26T08:25:19.538Z,2.55
2023-04-26T08:27:47.541Z,2.10
2023-04-26T08:30:15.648Z,2.67
2023-04-26T08:32:43.701Z,3.05
2023-04-26T08:35:12.027Z,2.88
2023-04-26T08:37:41.536Z,2.65
2023-04-26T08:40:10.901Z,3.03
2023-04-26T08:42:41.943Z,3.35
2023-04-26T08:45:11.575Z,2.83
2023-04-26T08:47:43.505Z,2.30
2023-04-26T08:50:14.807Z,2.25
2023-04-26T08:52:45.681Z,2.33
2023-04-26T08:55:14.571Z,3.40
2023-04-26T08:57:43.931Z,2.63
2023-04-26T09:00:13.503Z,2.78
2023-04-26T09:02:42.968Z,2.45
2023-04-26T09:05:12.426Z,2.55
2023-04-26T09:07:44.570Z,2.50
2023-04-26T09:10:13.705Z,3.85
2023-04-26T09:12:42.078Z,2.35
2023-04-26T09:15:11.552Z,1.95
2023-04-26T09:17:41.773Z,2.10
2023-04-26T09:20:21.848Z,2.42
2023-04-26T09:22:51.696Z,1.92
2023-04-26T09:25:28.120Z,2.72
2023-04-26T09:27:56.246Z,2.72
2023-04-26T09:30:24.430Z,2.38
2023-04-26T09:32:54.249Z,2.30
2023-04-26T09:35:30.657Z,2.42
2023-04-26T09:38:07.996Z,3.35
2023-04-26T09:40:40.983Z,2.60
2023-04-26T09:43:11.691Z,3.30
2023-04-26T09:45:49.099Z,2.58
2023-04-26T09:48:20.662Z,4.20
2023-04-26T09:50:49.187Z,3.15
2023-04-26T09:53:29.297Z,3.05
2023-04-26T09:55:58.163Z,2.78
2023-04-26T09:58:26.801Z,2.72
2023-04-26T10:00:54.867Z,2.15
2023-04-26T10:03:24.449Z,2.53
2023-04-26T10:05:52.720Z,2.53
2023-04-26T10:08:20.818Z,2.63
2023-04-26T10:10:51.375Z,2.08
2023-04-26T10:13:20.753Z,2.60
2023-04-26T10:15:49.389Z,2.45
2023-04-26T10:18:17.576Z,2.40
2023-04-26T10:20:48.010Z,2.38
2023-04-26T10:23:21.237Z,2.92
2023-04-26T10:25:50.627Z,2.45
2023-04-26T10:28:19.238Z,3.30
2023-04-26T10:30:57.262Z,2.92
2023-04-26T10:33:26.064Z,2.63
2023-04-26T10:36:07.097Z,2.28
2023-04-26T10:38:36.505Z,2.28
2023-04-26T10:41:34.180Z,1.95
2023-04-26T10:44:38.926Z,2.47
2023-04-26T10:47:07.670Z,2.40
2023-04-26T10:49:46.996Z,2.38
2023-04-26T10:52:16.406Z,2.17
2023-04-26T10:54:51.985Z,2.40
2023-04-26T10:57:22.620Z,2.25
2023-04-26T11:00:22.071Z,2.50
2023-04-26T11:03:15.361Z,2.70
2023-04-26T11:05:53.506Z,2.35
2023-04-26T11:08:24.836Z,1.92
2023-04-26T11:11:08.904Z,2.38
2023-04-26T11:13:39.578Z,1.73
2023-04-26T11:16:09.365Z,1.75
2023-04-26T11:18:38.840Z,1.95
2023-04-26T11:21:07.407Z,1.95
2023-04-26T11:23:36.601Z,1.92
2023-04-26T11:26:06.421Z,2.92
2023-04-26T11:28:35.023Z,2.28
2023-04-26T11:31:05.161Z,2.63
2023-04-26T11:33:34.202Z,2.13
2023-04-26T11:36:03.399Z,2.30
2023-04-26T11:38:31.441Z,1.90
2023-04-26T11:41:00.901Z,1.95
2023-04-26T11:43:35.645Z,2.78
2023-04-26T11:46:06.674Z,2.85
2023-04-26T11:48:36.153Z,2.58
2023-04-26T11:51:05.593Z,2.83
2023-04-26T11:53:37.975Z,2.47
2023-04-26T11:56:07.145Z,3.08
2023-04-26T11:58:35.168Z,2.30
2023-04-26T12:01:05.363Z,2.60
2023-04-26T12:03:35.456Z,3.13
2023-04-26T12:06:03.930Z,3.22
2023-04-26T12:08:33.869Z,2.58
2023-04-26T12:11:03.175Z,2.58
2023-04-26T12:13:31.973Z,2.97
2023-04-26T12:16:00.409Z,2.50
2023-04-26T12:18:33.584Z,3.13
2023-04-26T12:23:39.225Z,2.80
2023-04-26T12:26:10.648Z,2.05
2023-04-26T12:28:38.800Z,2.35
2023-04-26T12:31:07.515Z,3.35
2023-04-26T12:33:37.164Z,2.83
2023-04-26T12:36:09.549Z,2.67
2023-04-26T12:38:37.783Z,2.17
2023-04-26T12:41:06.115Z,2.80
2023-04-26T12:43:34.227Z,3.63
2023-04-26T12:46:02.467Z,3.10
2023-04-26T12:48:30.694Z,3.00
2023-04-26T12:51:00.389Z,3.45
2023-04-26T12:53:28.400Z,2.60
2023-04-26T12:55:56.453Z,3.88
2023-04-26T12:58:25.487Z,2.83
2023-04-26T13:00:54.233Z,2.45
2023-04-26T13:03:22.423Z,3.80
2023-04-26T13:05:50.753Z,3.58
2023-04-26T13:08:20.169Z,4.15
2023-04-26T13:10:48.160Z,3.50
2023-04-26T13:13:16.199Z,3.65
2023-04-26T13:15:44.530Z,3.47
2023-04-26T13:18:12.879Z,3.60
2023-04-26T13:20:41.030Z,3.38
2023-04-26T13:23:09.442Z,3.78
2023-04-26T13:25:38.875Z,3.80
2023-04-26T13:28:07.008Z,3.40
2023-04-26T13:30:34.978Z,3.45
2023-04-26T13:33:03.036Z,4.20
2023-04-26T13:35:31.096Z,3.72
2023-04-26T13:37:59.262Z,3.63
2023-04-26T13:40:27.291Z,4.40
2023-04-26T13:42:56.696Z,4.10
2023-04-26T13:45:24.695Z,4.05
2023-04-26T13:47:52.834Z,3.75
2023-04-26T13:50:20.904Z,4.30
2023-04-26T13:52:50.878Z,3.47
2023-04-26T13:55:18.907Z,3.13
2023-04-26T13:57:46.919Z,3.72
2023-04-26T14:00:17.970Z,3.33
2023-04-26T14:02:46.166Z,3.47
2023-04-26T14:05:14.895Z,3.97
2023-04-26T14:07:43.194Z,4.22
2023-04-26T14:10:12.173Z,3.03
2023-04-26T14:12:40.279Z,3.95
2023-04-26T14:15:09.341Z,3.78
2023-04-26T14:17:38.729Z,3.72
2023-04-26T14:20:08.332Z,3.90
2023-04-26T14:22:36.695Z,3.60
2023-04-26T14:25:05.143Z,4.30
2023-04-26T14:27:33.365Z,3.90
2023-04-26T14:30:01.294Z,3.75
2023-04-26T14:32:29.364Z,4.63
2023-04-26T14:34:58.760Z,3.78
2023-04-26T14:37:27.417Z,4.20
2023-04-26T14:39:55.432Z,4.00
2023-04-26T14:42:23.450Z,4.05
2023-04-26T14:44:51.869Z,3.55
2023-04-26T14:47:19.877Z,3.63
2023-04-26T14:49:47.897Z,3.50
2023-04-26T14:52:17.352Z,4.65
2023-04-26T14:54:45.732Z,3.80
2023-04-26T14:57:13.756Z,3.85
2023-04-26T14:59:42.188Z,4.93
2023-04-26T15:02:10.209Z,3.75
2023-04-26T15:04:38.521Z,4.35
2023-04-26T15:07:06.745Z,3.88
2023-04-26T15:09:36.163Z,4.35
2023-04-26T15:12:04.765Z,4.95
2023-04-26T15:14:32.818Z,4.15
2023-04-26T15:17:00.872Z,4.40
2023-04-26T15:19:28.874Z,4.32
2023-04-26T15:21:56.869Z,4.75
2023-04-26T15:24:24.963Z,4.40
2023-04-26T15:26:54.423Z,4.70
2023-04-26T15:29:22.401Z,3.97
2023-04-26T15:31:50.971Z,4.43
2023-04-26T15:34:19.010Z,4.50
2023-04-26T15:36:47.414Z,4.10
2023-04-26T15:39:15.371Z,4.75
2023-04-26T15:41:43.372Z,4.22
2023-04-26T15:44:12.781Z,4.88
2023-04-26T15:46:40.932Z,4.68
2023-04-26T15:49:08.952Z,5.60
2023-04-26T15:51:36.983Z,4.97
2023-04-26T15:54:05.196Z,5.35
2023-04-26T15:56:33.197Z,4.32
2023-04-26T15:59:01.176Z,4.65
2023-04-26T16:01:31.157Z,4.43
2023-04-26T16:03:59.647Z,4.78
2023-04-26T16:06:28.582Z,5.10
2023-04-26T16:08:56.671Z,4.53
2023-04-26T16:11:24.712Z,4.50
2023-04-26T16:13:52.914Z,5.40
2023-04-26T16:16:21.067Z,5.05
2023-04-26T16:18:50.468Z,4.47
2023-04-26T16:21:18.470Z,4.55
2023-04-26T16:23:46.759Z,5.00
2023-04-26T16:26:14.770Z,4.05
2023-04-26T16:28:42.769Z,4.53
2023-04-26T16:31:10.943Z,4.60
2023-04-26T16:33:39.125Z,4.03
2023-04-26T16:36:10.164Z,5.53
2023-04-26T16:38:38.175Z,4.60
2023-04-26T16:41:06.275Z,4.00
2023-04-26T16:43:34.284Z,4.18
2023-04-26T16:46:03.540Z,4.70
2023-04-26T16:48:33.110Z,4.85
2023-04-26T16:51:01.210Z,4.82
2023-04-26T16:53:30.702Z,4.50
2023-04-26T16:55:58.973Z,4.10
2023-04-26T16:58:27.406Z,4.57
2023-04-26T17:00:55.466Z,4.50
2023-04-26T17:03:24.636Z,7.45
2023-04-26T17:05:53.002Z,4.93
2023-04-26T17:08:22.067Z,4.50
2023-04-26T17:10:51.926Z,4.75
2023-04-26T17:13:20.329Z,3.90
2023-04-26T17:15:48.611Z,4.38
2023-04-26T17:18:16.677Z,4.57
2023-04-26T17:20:44.687Z,4.40
2023-04-26T17:23:12.676Z,4.40
2023-04-26T17:25:40.896Z,4.07
2023-04-26T17:28:11.319Z,4.47
2023-04-26T17:30:39.305Z,4.40
2023-04-26T17:33:07.691Z,3.80
2023-04-26T17:35:35.796Z,4.20
2023-04-26T17:38:04.061Z,4.20
2023-04-26T17:40:32.066Z,4.43
2023-04-26T17:43:00.099Z,4.15
2023-04-26T17:45:29.687Z,4.40
2023-04-26T17:47:57.815Z,4.50
2023-04-26T17:50:25.804Z,4.28
2023-04-26T17:52:53.802Z,4.07
2023-04-26T17:55:21.939Z,5.00
2023-04-26T17:57:49.943Z,4.28
2023-04-26T18:00:19.108Z,4.72
2023-04-26T18:02:48.716Z,4.22
2023-04-26T18:05:16.947Z,4.28
2023-04-26T18:07:44.922Z,5.32
2023-04-26T18:10:12.922Z,4.60
2023-04-26T18:12:40.941Z,4.05
2023-04-26T18:15:09.723Z,4.57
2023-04-26T18:17:37.745Z,4.57
2023-04-26T18:20:08.493Z,4.15
2023-04-26T18:22:36.536Z,4.60
2023-04-26T18:25:04.861Z,3.92
2023-04-26T18:27:32.889Z,3.85
2023-04-26T18:30:01.136Z,4.25
2023-04-26T18:32:30.315Z,4.28
2023-04-26T18:34:58.390Z,4.28
2023-04-26T18:37:27.745Z,4.18
2023-04-26T18:39:55.717Z,3.85
2023-04-26T18:42:24.079Z,4.53
2023-04-26T18:44:52.241Z,4.63
2023-04-26T18:47:20.605Z,6.22
2023-04-26T18:49:48.732Z,5.70
2023-04-26T18:52:17.459Z,6.10
2023-04-26T18:54:46.841Z,7.25
2023-04-26T18:57:15.643Z,6.80
2023-04-26T18:59:43.767Z,6.25
2023-04-26T19:02:12.033Z,6.07
2023-04-26T19:04:40.425Z,6.57
2023-04-26T19:07:09.005Z,4.78
2023-04-26T19:09:50.530Z,4.95
2023-04-26T19:12:24.118Z,5.00
2023-04-26T19:14:52.411Z,5.05
2023-04-26T19:17:20.799Z,5.18
2023-04-26T19:19:51.632Z,4.90
2023-04-26T19:22:19.784Z,4.93
2023-04-26T19:24:50.070Z,5.38
2023-04-26T19:27:18.243Z,5.95
2023-04-26T19:29:47.576Z,5.10
2023-04-26T19:32:15.753Z,5.50
2023-04-26T19:34:44.290Z,5.53
2023-04-26T19:37:13.074Z,7.10
2023-04-26T19:39:41.119Z,5.50
2023-04-26T19:42:09.171Z,5.95
2023-04-26T19:44:39.285Z,6.68
2023-04-26T19:47:09.271Z,6.32
2023-04-26T19:49:37.788Z,6.00
2023-04-26T19:52:05.852Z,6.03
2023-04-26T19:54:33.872Z,6.13
2023-04-26T19:57:03.859Z,5.00
2023-04-26T19:59:31.983Z,6.10
2023-04-26T20:02:00.122Z,6.05
2023-04-26T20:04:29.562Z,6.03
2023-04-26T20:06:57.617Z,6.10
2023-04-26T20:09:26.303Z,6.32
2023-04-26T20:11:54.577Z,5.70
2023-04-26T20:14:22.593Z,5.72
2023-04-26T20:16:51.723Z,5.60
2023-04-26T20:19:19.968Z,7.15
2023-04-26T20:21:49.429Z,10.48
2023-04-26T20:24:17.447Z,11.10
2023-04-26T20:26:45.688Z,8.38
2023-04-26T20:29:13.706Z,5.30
2023-04-26T20:31:41.819Z,6.20
2023-04-26T20:34:09.838Z,5.30
2023-04-26T20:36:37.842Z,5.78
2023-04-26T20:39:09.203Z,5.68
2023-04-26T20:41:37.466Z,4.80
2023-04-26T20:44:06.086Z,5.75
2023-04-26T20:46:35.316Z,5.45
2023-04-26T20:49:04.108Z,5.70
2023-04-26T20:51:33.102Z,6.00
2023-04-26T20:54:01.165Z,5.70
2023-04-26T20:56:30.563Z,5.57
2023-04-26T20:58:58.826Z,6.20
2023-04-26T21:01:27.863Z,7.65
2023-04-26T21:03:56.235Z,6.57
2023-04-26T21:06:24.476Z,5.95
2023-04-26T21:08:52.484Z,5.55
2023-04-26T21:11:20.617Z,7.13
2023-04-26T21:13:49.980Z,6.35
2023-04-26T21:16:18.063Z,6.32
2023-04-26T21:18:46.085Z,5.90
2023-04-26T21:21:14.102Z,3.63
2023-04-26T21:23:42.274Z,3.95
2023-04-26T21:26:10.323Z,3.92
2023-04-26T21:28:38.349Z,4.55
2023-04-26T21:31:08.791Z,4.43
2023-04-26T21:33:37.008Z,4.30
2023-04-26T21:36:05.540Z,4.80
2023-04-26T21:38:33.573Z,4.05
2023-04-26T21:41:01.601Z,5.18
2023-04-26T21:43:29.792Z,4.60
2023-04-26T21:45:58.584Z,4.43
2023-04-26T21:48:28.101Z,3.95
2023-04-26T21:50:56.158Z,5.07
2023-04-26T21:53:24.185Z,4.88
2023-04-26T21:55:54.041Z,5.43
2023-04-26T21:58:22.486Z,4.38
2023-04-26T22:00:50.609Z,5.35
2023-04-26T22:03:19.086Z,4.75
2023-04-26T22:05:48.682Z,4.22
2023-04-26T22:08:16.763Z,3.33
2023-04-26T22:10:44.783Z,4.32
2023-04-26T22:13:12.922Z,5.75
2023-04-26T22:15:41.114Z,5.22
2023-04-26T22:18:09.493Z,4.20
2023-04-26T22:20:37.507Z,4.32
2023-04-26T22:23:06.903Z,5.53
2023-04-26T22:25:34.910Z,4.65
2023-04-26T22:28:02.952Z,5.60
2023-04-26T22:30:31.138Z,5.90
2023-04-26T22:32:59.815Z,5.05
2023-04-26T22:35:28.792Z,4.32
2023-04-26T22:37:56.864Z,4.97
2023-04-26T22:40:26.403Z,5.30
2023-04-26T22:42:54.595Z,5.28
2023-04-26T22:45:22.813Z,4.82
2023-04-26T22:47:51.098Z,5.22
2023-04-26T22:50:19.324Z,4.50
2023-04-26T22:52:47.355Z,3.80
2023-04-26T22:55:15.412Z,4.60
2023-04-26T22:57:44.793Z,4.10
2023-04-26T23:00:14.675Z,5.22
2023-04-26T23:02:43.003Z,4.28
2023-04-26T23:05:11.655Z,5.10
2023-04-26T23:07:39.898Z,5.13
2023-04-26T23:10:08.808Z,9.23
2023-04-26T23:12:37.531Z,6.60
2023-04-26T23:15:08.412Z,4.40
2023-04-26T23:17:36.559Z,4.78
2023-04-26T23:20:11.942Z,4.80
2023-04-26T23:22:40.832Z,6.18
2023-04-26T23:25:10.000Z,5.40
2023-04-26T23:27:38.580Z,6.10
2023-04-26T23:30:09.251Z,5.25
2023-04-26T23:32:37.376Z,5.20
2023-04-26T23:35:06.565Z,4.47
2023-04-26T23:37:34.667Z,4.97
2023-04-26T23:40:03.924Z,5.25
2023-04-26T23:42:31.934Z,5.05
2023-04-26T23:45:00.106Z,5.07
2023-04-26T23:47:30.089Z,5.78
2023-04-26T23:49:58.270Z,5.95
2023-04-26T23:52:26.351Z,5.30
2023-04-26T23:54:54.366Z,4.95
2023-04-26T23:57:22.439Z,5.18
2023-04-26T23:59:52.678Z,5.13
